Time;durP1;ratioP1;P1;durP2;ratioP2;P2;SDS_P1;SDS_P2;PMS_P1;PMS_P2;Temp;Humidity;BMP_temperature;BMP_pressure;BME280_temperature;BME280_humidity;BME280_pressure;Samples;Min_cycle;Max_cycle;Signal;HPM_P1;HPM_P2
2022/10/08 00:01:21;;;;;;;8.60;2.10;;;;;;;14.95;58.81;101591.03;5083374;28;20051;-64
2022/10/08 00:03:52;;;;;;;11.10;2.22;;;;;;;14.93;58.49;101585.00;5083746;28;20067;-63
2022/10/08 00:06:22;;;;;;;6.85;1.75;;;;;;;14.94;58.69;101590.19;5083539;28;20060;-63
2022/10/08 00:08:54;;;;;;;7.20;2.90;;;;;;;14.94;58.48;101589.38;5084183;28;20048;-63
2022/10/08 00:11:24;;;;;;;6.95;2.08;;;;;;;14.93;58.76;101588.53;5082939;28;20036;-63
2022/10/08 00:13:54;;;;;;;6.97;2.08;;;;;;;14.93;58.87;101593.97;5074529;28;20116;-63
2022/10/08 00:16:24;;;;;;;9.07;2.22;;;;;;;14.92;58.69;101583.38;5081131;28;20052;-63
2022/10/08 00:18:54;;;;;;;6.18;2.40;;;;;;;14.92;58.69;101589.59;5072767;28;20522;-63
2022/10/08 00:21:23;;;;;;;8.38;2.83;;;;;;;14.85;58.72;101572.66;5083006;28;20040;-63
2022/10/08 00:23:53;;;;;;;6.65;2.40;;;;;;;14.93;58.82;101583.13;5088022;28;20044;-63
2022/10/08 00:26:24;;;;;;;6.78;2.08;;;;;;;14.93;58.91;101588.53;5078413;28;20044;-63
2022/10/08 00:28:53;;;;;;;14.05;2.45;;;;;;;14.92;58.75;101586.91;5082424;28;20078;-63
2022/10/08 00:31:23;;;;;;;7.63;2.30;;;;;;;14.92;58.77;101586.91;5085480;28;20054;-63
2022/10/08 00:33:53;;;;;;;7.28;2.65;;;;;;;14.91;59.04;101585.25;5084031;28;20041;-63
2022/10/08 00:36:21;;;;;;;7.38;2.25;;;;;;;14.93;58.98;101590.44;5089237;28;20048;-63
2022/10/08 00:38:49;;;;;;;6.40;2.17;;;;;;;14.91;58.79;101587.94;5086487;28;20055;-63
2022/10/08 00:41:22;;;;;;;8.88;2.78;;;;;;;14.91;58.97;101579.84;5090464;28;20048;-63
2022/10/08 00:43:52;;;;;;;7.45;2.67;;;;;;;14.90;59.04;101586.31;5082744;28;20058;-63
2022/10/08 00:46:24;;;;;;;7.95;2.30;;;;;;;14.90;58.96;101589.00;5086149;28;20363;-63
2022/10/08 00:48:57;;;;;;;9.93;1.95;;;;;;;14.90;58.79;101580.91;5076876;28;20053;-63
2022/10/08 00:51:25;;;;;;;8.27;2.63;;;;;;;14.90;59.18;101586.31;5089973;28;20040;-63
2022/10/08 00:53:53;;;;;;;7.18;2.33;;;;;;;14.88;59.23;101582.19;5077597;28;20071;-63
2022/10/08 00:56:23;;;;;;;12.13;2.60;;;;;;;14.89;59.07;101581.13;5082483;28;20569;-63
2022/10/08 00:58:52;;;;;;;7.25;2.45;;;;;;;14.89;58.99;101586.53;5076937;28;20056;-63
2022/10/08 01:01:20;;;;;;;7.13;2.42;;;;;;;14.87;59.25;101578.66;5083394;28;20055;-63
2022/10/08 01:03:48;;;;;;;9.13;2.92;;;;;;;14.88;59.31;101569.47;5085116;28;20082;-63
2022/10/08 01:06:26;;;;;;;5.88;2.17;;;;;;;14.87;59.45;101567.81;5094064;28;20057;-63
2022/10/08 01:08:59;;;;;;;8.50;2.40;;;;;;;14.86;59.32;101587.81;5078115;28;20052;-63
2022/10/08 01:11:42;;;;;;;7.07;1.80;;;;;;;14.86;59.18;101587.00;5081837;28;20049;-63
2022/10/08 01:14:24;;;;;;;7.05;2.28;;;;;;;14.84;59.85;101579.13;5076928;28;20048;-63
2022/10/08 01:17:02;;;;;;;8.77;2.83;;;;;;;14.77;59.39;101585.69;5082399;28;20614;-63
2022/10/08 01:19:49;;;;;;;7.47;2.28;;;;;;;14.84;59.65;101591.81;5083826;28;20056;-63
2022/10/08 01:22:34;;;;;;;9.65;2.40;;;;;;;14.83;59.87;101603.69;5079924;28;20050;-63
2022/10/08 01:25:32;;;;;;;7.85;2.85;;;;;;;14.83;60.02;101604.53;5079531;28;20063;-63
2022/10/08 01:28:11;;;;;;;6.90;2.75;;;;;;;14.82;60.07;101611.00;5076607;28;20048;-63
2022/10/08 01:30:45;;;;;;;10.57;3.63;;;;;;;14.81;60.31;101611.22;5084758;28;20048;-63
2022/10/08 01:33:19;;;;;;;6.60;2.38;;;;;;;14.82;60.37;101604.75;5080187;28;20053;-63
2022/10/08 01:35:52;;;;;;;6.75;2.40;;;;;;;14.81;60.50;101614.75;5081230;28;20060;-63
2022/10/08 01:38:23;;;;;;;9.55;2.63;;;;;;;14.80;60.64;101615.81;5082147;28;20119;-63
2022/10/08 01:40:57;;;;;;;11.43;3.35;;;;;;;14.79;60.94;101611.47;5081292;28;20045;-63
2022/10/08 01:43:32;;;;;;;11.23;2.67;;;;;;;14.79;60.59;101613.34;5080055;28;20052;-63
2022/10/08 01:46:05;;;;;;;11.80;2.80;;;;;;;14.78;60.93;101609.81;5082195;28;20044;-63
2022/10/08 01:48:38;;;;;;;7.53;2.28;;;;;;;14.78;61.08;101612.50;5082273;28;20048;-63
2022/10/08 01:51:12;;;;;;;6.75;2.10;;;;;;;14.77;61.29;101620.88;5085588;28;20063;-63
2022/10/08 01:53:44;;;;;;;6.47;2.55;;;;;;;14.77;61.05;101627.09;5079634;28;20048;-63
2022/10/08 01:56:18;;;;;;;10.25;2.80;;;;;;;14.76;61.55;101617.34;5082056;28;20136;-63
2022/10/08 01:58:54;;;;;;;9.95;3.28;;;;;;;14.76;61.25;101617.34;5075160;28;20063;-63
2022/10/08 02:01:28;;;;;;;8.65;2.03;;;;;;;14.77;60.94;101624.41;5080637;28;20045;-63
2022/10/08 02:06:47;;;;;;;6.30;2.25;;;;;;;14.76;61.19;101630.84;5079804;28;20056;-64
2022/10/08 02:09:16;;;;;;;5.20;1.83;;;;;;;14.70;61.13;101618.25;5085787;28;20337;-64
2022/10/08 02:11:44;;;;;;;9.90;2.22;;;;;;;14.76;61.38;101630.84;5082180;28;20059;-63
2022/10/08 02:14:14;;;;;;;4.82;2.10;;;;;;;14.76;61.09;101640.84;5078863;28;20048;-63
2022/10/08 02:16:48;;;;;;;10.70;2.15;;;;;;;14.75;61.07;101640.03;5087045;28;20048;-63
2022/10/08 02:19:23;;;;;;;8.82;2.40;;;;;;;14.76;61.41;101640.84;5085774;28;20048;-62
2022/10/08 02:21:53;;;;;;;8.23;2.33;;;;;;;14.72;61.41;101632.38;5082344;28;20051;-63
2022/10/08 02:24:27;;;;;;;4.70;1.77;;;;;;;14.73;61.58;101628.63;5084839;28;20043;-63
2022/10/08 02:26:58;;;;;;;4.88;2.03;;;;;;;14.74;61.28;101626.75;5092042;28;20064;-63
2022/10/08 02:29:35;;;;;;;5.68;1.90;;;;;;;14.73;61.58;101634.03;5082827;28;20045;-63
2022/10/08 02:32:08;;;;;;;5.60;1.95;;;;;;;14.73;61.90;101634.03;5083729;28;20056;-63
2022/10/08 02:34:39;;;;;;;6.15;2.00;;;;;;;14.73;61.84;101628.63;5076812;28;20063;-63
2022/10/08 02:37:13;;;;;;;5.65;1.65;;;;;;;14.73;62.12;101633.19;5074165;28;20406;-63
2022/10/08 02:39:47;;;;;;;6.68;1.83;;;;;;;14.72;61.64;101637.78;5082845;28;20052;-63
2022/10/08 02:42:20;;;;;;;4.20;1.55;;;;;;;14.72;61.79;101635.09;5080289;28;20037;-63
2022/10/08 02:44:54;;;;;;;5.05;1.63;;;;;;;14.72;61.83;101632.38;5084359;28;20068;-63
2022/10/08 02:47:27;;;;;;;8.75;1.80;;;;;;;14.72;61.82;101628.84;5079680;28;20325;-63
2022/10/08 02:49:58;;;;;;;5.13;1.60;;;;;;;14.70;62.01;101634.50;5086646;28;20057;-63
2022/10/08 02:52:30;;;;;;;9.98;2.22;;;;;;;14.71;62.31;101632.59;5080545;28;20055;-63
2022/10/08 02:55:00;;;;;;;6.28;2.15;;;;;;;14.69;62.45;101623.91;5085750;28;20135;-63
2022/10/08 02:57:34;;;;;;;4.68;1.48;;;;;;;14.69;62.30;101629.31;5087271;28;20265;-63
2022/10/08 03:00:04;;;;;;;4.25;1.88;;;;;;;14.69;62.10;101629.31;5086615;28;20045;-64
2022/10/08 03:02:39;;;;;;;5.85;1.80;;;;;;;14.69;62.37;101624.72;5088422;28;20059;-63
2022/10/08 03:05:13;;;;;;;5.20;1.83;;;;;;;14.69;62.53;101637.44;5089755;28;20108;-63
2022/10/08 03:07:42;;;;;;;6.50;1.70;;;;;;;14.67;62.01;101632.25;5090503;28;20052;-63
2022/10/08 03:10:12;;;;;;;6.35;1.52;;;;;;;14.66;62.18;101636.00;5083001;28;20052;-63
2022/10/08 03:12:40;;;;;;;5.15;1.50;;;;;;;14.65;62.28;101628.94;5088805;28;20049;-63
2022/10/08 03:15:10;;;;;;;5.35;1.60;;;;;;;14.63;62.03;101618.34;5084621;28;20064;-63
2022/10/08 03:17:43;;;;;;;5.82;1.92;;;;;;;14.65;62.14;101634.34;5081325;28;20067;-63
2022/10/08 03:20:12;;;;;;;3.28;1.30;;;;;;;14.63;62.42;101626.47;5085268;28;20070;-63
2022/10/08 03:22:40;;;;;;;3.15;1.20;;;;;;;14.63;62.22;101628.34;5084411;28;20049;-63
2022/10/08 03:25:08;;;;;;;5.28;1.65;;;;;;;14.63;62.42;101645.41;5086240;28;20066;-63
2022/10/08 03:27:36;;;;;;;4.85;1.70;;;;;;;14.62;62.11;101643.75;5080032;28;20052;-63
2022/10/08 03:30:05;;;;;;;5.38;1.75;;;;;;;14.61;62.61;101650.22;5085731;28;20049;-63
2022/10/08 03:32:34;;;;;;;3.33;1.10;;;;;;;14.61;62.36;101652.91;5090625;28;20092;-64
2022/10/08 03:35:02;;;;;;;4.15;1.70;;;;;;;14.60;62.48;101653.16;5084787;28;20052;-64
2022/10/08 03:37:29;;;;;;;5.68;1.98;;;;;;;14.60;62.68;101653.97;5080124;28;20045;-63
2022/10/08 03:39:57;;;;;;;5.82;1.90;;;;;;;14.59;62.61;101649.63;5087851;28;20052;-63
2022/10/08 03:42:25;;;;;;;5.63;1.95;;;;;;;14.59;62.41;101668.56;5084597;28;20045;-63
2022/10/08 03:44:53;;;;;;;6.80;1.67;;;;;;;14.58;62.71;101669.59;5077232;28;20053;-63
2022/10/08 03:47:20;;;;;;;3.95;1.40;;;;;;;14.55;62.73;101663.84;5084934;28;20044;-63
2022/10/08 03:49:50;;;;;;;5.57;1.65;;;;;;;14.48;62.89;101657.69;5081724;28;20055;-63
2022/10/08 03:52:17;;;;;;;5.32;1.58;;;;;;;14.54;62.58;101656.75;5079474;28;20040;-64
2022/10/08 03:54:45;;;;;;;2.42;1.05;;;;;;;14.56;62.63;101660.06;5077732;28;20055;-63
2022/10/08 03:57:13;;;;;;;4.85;1.95;;;;;;;14.55;62.96;101667.38;5083881;28;20052;-63
2022/10/08 03:59:41;;;;;;;3.45;1.30;;;;;;;14.55;63.31;101671.94;5081837;28;20074;-63
2022/10/08 04:02:08;;;;;;;7.07;1.70;;;;;;;14.55;63.25;101666.53;5073568;28;20052;-64
2022/10/08 04:04:36;;;;;;;3.95;1.35;;;;;;;14.53;63.34;101668.63;5082171;28;20063;-63
2022/10/08 04:07:05;;;;;;;3.25;1.40;;;;;;;14.53;63.45;101661.34;5082429;28;20052;-63
2022/10/08 04:09:33;;;;;;;5.60;1.88;;;;;;;14.52;63.44;101661.59;5084666;28;20059;-63
2022/10/08 04:12:01;;;;;;;6.45;1.73;;;;;;;14.53;63.50;101668.63;5080712;28;20048;-64
2022/10/08 04:14:29;;;;;;;6.28;1.83;;;;;;;14.53;63.06;101668.63;5084138;28;20041;-63
2022/10/08 04:16:57;;;;;;;3.70;1.40;;;;;;;14.52;63.19;101673.22;5074882;28;20068;-63
2022/10/08 04:19:24;;;;;;;3.85;1.52;;;;;;;14.52;63.25;101677.81;5083752;28;20051;-63
2022/10/08 04:21:52;;;;;;;4.38;1.80;;;;;;;14.52;63.47;101683.22;5077819;28;20064;-63
2022/10/08 04:24:21;;;;;;;5.45;1.90;;;;;;;14.50;63.54;101688.03;5088237;28;20047;-63
2022/10/08 04:26:49;;;;;;;4.45;1.83;;;;;;;14.50;63.74;101690.75;5081293;28;20070;-63
2022/10/08 04:29:17;;;;;;;6.07;2.55;;;;;;;14.50;64.17;101679.91;5088886;28;20050;-63
2022/10/08 04:31:45;;;;;;;7.82;2.53;;;;;;;14.48;64.07;101682.84;5083258;28;20076;-63
2022/10/08 04:34:12;;;;;;;5.25;2.75;;;;;;;14.48;64.33;101682.03;5082704;28;20096;-63
2022/10/08 04:36:40;;;;;;;6.70;2.20;;;;;;;14.49;64.02;101686.38;5085620;28;20151;-63
2022/10/08 04:39:08;;;;;;;7.03;3.33;;;;;;;14.48;64.34;101682.03;5083653;28;20055;-63
2022/10/08 04:41:37;;;;;;;7.35;2.78;;;;;;;14.47;64.20;101691.19;5088950;28;20455;-63
2022/10/08 04:44:05;;;;;;;6.10;3.30;;;;;;;14.47;64.42;101686.59;5082542;28;20075;-63
2022/10/08 04:46:33;;;;;;;7.85;3.10;;;;;;;14.45;63.95;101696.81;5087558;28;20050;-63
2022/10/08 04:49:01;;;;;;;8.35;3.13;;;;;;;14.45;64.67;101704.94;5082492;28;20110;-63
2022/10/08 04:51:28;;;;;;;11.30;4.97;;;;;;;14.44;64.68;101703.28;5077740;28;20055;-63
2022/10/08 04:53:57;;;;;;;10.18;5.15;;;;;;;14.45;64.44;101709.53;5076997;28;20049;-63
2022/10/08 04:56:27;;;;;;;7.07;4.30;;;;;;;14.45;64.60;101706.81;5082191;28;20087;-63
2022/10/08 04:58:57;;;;;;;10.13;5.07;;;;;;;14.45;64.60;101706.81;5079889;28;20045;-63
2022/10/08 05:01:27;;;;;;;14.38;7.60;;;;;;;14.45;65.39;101717.63;5083588;28;20045;-62
2022/10/08 05:03:56;;;;;;;13.98;8.68;;;;;;;14.43;65.04;101712.44;5081582;28;20044;-63
2022/10/08 05:06:27;;;;;;;16.15;8.63;;;;;;;14.43;65.16;101730.56;5086703;28;20045;-63
2022/10/08 05:08:55;;;;;;;13.45;8.25;;;;;;;14.43;65.34;101727.84;5083553;28;20048;-62
2022/10/08 05:11:25;;;;;;;16.27;9.65;;;;;;;14.42;65.66;101735.16;5078946;28;20045;-63
2022/10/08 05:13:54;;;;;;;14.25;9.40;;;;;;;14.41;65.20;101730.75;5081142;28;20045;-63
2022/10/08 05:16:24;;;;;;;16.80;10.75;;;;;;;14.41;65.74;101738.03;5081507;28;20076;-62
2022/10/08 05:18:52;;;;;;;14.73;10.52;;;;;;;14.39;65.84;101732.84;5081701;28;20052;-63
2022/10/08 05:21:22;;;;;;;16.85;10.55;;;;;;;14.39;65.50;101732.84;5080327;28;20515;-66
2022/10/08 05:23:54;;;;;;;15.85;11.55;;;;;;;14.39;65.99;101740.97;5079695;28;20055;-64
2022/10/08 05:26:24;;;;;;;17.38;12.60;;;;;;;14.38;66.04;101742.03;5083671;28;20051;-63
2022/10/08 05:29:12;;;;;;;22.35;13.63;;;;;;;14.30;66.16;101729.63;5081163;28;20044;-63
2022/10/08 05:31:41;;;;;;;21.88;12.32;;;;;;;14.37;65.97;101743.06;5088646;28;20044;-62
2022/10/08 05:34:10;;;;;;;20.33;13.20;;;;;;;14.36;66.07;101744.13;5097550;28;20044;-63
2022/10/08 05:36:38;;;;;;;24.77;13.90;;;;;;;14.36;66.34;101746.00;5085950;28;20160;-62
2022/10/08 05:39:06;;;;;;;28.85;15.07;;;;;;;14.36;66.58;101754.13;5079295;28;20059;-62
2022/10/08 05:41:36;;;;;;;19.50;13.35;;;;;;;14.35;66.47;101758.69;5082785;28;20584;-63
2022/10/08 05:44:05;;;;;;;16.77;11.75;;;;;;;14.35;66.35;101764.09;5082532;28;20140;-63
2022/10/08 05:46:35;;;;;;;22.05;12.85;;;;;;;14.35;66.16;101769.50;5080808;28;20055;-63
2022/10/08 05:49:07;;;;;;;21.23;14.38;;;;;;;14.22;66.26;101756.97;5083195;28;20074;-63
2022/10/08 05:51:37;;;;;;;18.88;13.45;;;;;;;14.34;66.19;101775.97;5079921;28;20049;-63
2022/10/08 05:54:05;;;;;;;22.17;13.93;;;;;;;14.34;66.75;101784.09;5082973;28;20040;-63
2022/10/08 05:56:33;;;;;;;22.08;12.65;;;;;;;14.31;66.64;101774.53;5083417;28;20048;-63
2022/10/08 05:59:00;;;;;;;18.77;13.95;;;;;;;14.31;66.71;101782.66;5080489;28;20565;-67
2022/10/08 06:01:31;;;;;;;19.73;13.15;;;;;;;14.30;66.36;101785.59;4722685;28;9999633;-64
2022/10/08 06:04:02;;;;;;;21.45;13.30;;;;;;;14.29;66.23;101795.56;5086112;28;20048;-65
2022/10/08 06:06:37;;;;;;;24.70;13.95;;;;;;;14.21;66.44;101778.81;5075093;28;20109;-65
2022/10/08 06:09:06;;;;;;;19.17;13.48;;;;;;;14.30;66.72;101802.63;5089804;28;20488;-64
2022/10/08 06:11:36;;;;;;;20.55;12.65;;;;;;;14.29;66.47;101806.38;5086608;28;20040;-64
2022/10/08 06:14:05;;;;;;;17.80;12.10;;;;;;;14.21;66.04;101787.75;5081714;28;20049;-66
2022/10/08 06:16:34;;;;;;;22.38;13.77;;;;;;;14.29;66.00;101816.38;5079407;28;20052;-67
2022/10/08 06:19:03;;;;;;;21.90;12.38;;;;;;;14.30;65.99;101815.34;5084284;28;20114;-67
2022/10/08 06:21:32;;;;;;;22.50;13.32;;;;;;;14.22;66.11;101804.81;5079954;28;20048;-65
2022/10/08 06:24:04;;;;;;;24.77;14.75;;;;;;;14.30;66.20;101821.56;5079213;28;20055;-66
2022/10/08 06:26:34;;;;;;;20.08;13.95;;;;;;;14.30;66.30;101820.75;5073813;28;20056;-65
2022/10/08 06:29:05;;;;;;;22.92;13.73;;;;;;;14.30;66.08;101828.84;5077276;28;20116;-65
2022/10/08 06:31:33;;;;;;;23.45;13.98;;;;;;;14.29;66.29;101838.84;5083597;28;20484;-64
2022/10/08 06:34:02;;;;;;;23.30;14.90;;;;;;;14.29;66.12;101838.84;5083279;28;20056;-64
2022/10/08 06:36:31;;;;;;;24.83;13.07;;;;;;;14.30;66.12;101847.78;5079366;28;20048;-65
2022/10/08 06:39:03;;;;;;;22.25;13.82;;;;;;;14.29;65.89;101840.72;5078923;28;20337;-65
2022/10/08 06:41:33;;;;;;;26.05;14.93;;;;;;;14.27;66.11;101830.13;5078027;28;20055;-65
2022/10/08 06:44:02;;;;;;;25.48;13.07;;;;;;;14.28;66.32;101842.59;5079028;28;20577;-64
2022/10/08 06:46:31;;;;;;;20.17;13.93;;;;;;;14.27;65.94;101840.94;5082051;28;20053;-65
2022/10/08 06:49:00;;;;;;;18.20;12.25;;;;;;;14.29;65.93;101856.94;5081670;28;20655;-65
2022/10/08 06:51:29;;;;;;;22.15;13.00;;;;;;;14.28;66.33;101858.00;5080848;28;20044;-66
2022/10/08 06:53:58;;;;;;;25.35;13.90;;;;;;;14.30;66.26;101864.81;4728424;28;9999640;-66
2022/10/08 06:56:36;;;;;;;20.52;12.00;;;;;;;14.28;66.28;101880.44;5089514;28;20167;-66
2022/10/08 06:59:04;;;;;;;21.70;12.45;;;;;;;14.29;66.19;101874.00;5084642;28;20055;-65
2022/10/08 07:01:33;;;;;;;19.55;11.10;;;;;;;14.30;65.75;101893.75;5081087;28;20049;-66
2022/10/08 07:04:03;;;;;;;18.10;11.52;;;;;;;14.29;66.33;101892.09;5080455;28;20165;-67
2022/10/08 07:06:30;;;;;;;17.25;10.90;;;;;;;14.29;66.65;101892.91;5082600;28;20062;-67
2022/10/08 07:09:00;;;;;;;19.95;11.85;;;;;;;14.27;67.05;101903.13;5081913;28;20052;-67
2022/10/08 07:11:29;;;;;;;15.27;10.07;;;;;;;14.16;67.22;101886.78;5078295;28;20056;-66
2022/10/08 07:13:58;;;;;;;19.30;11.27;;;;;;;14.23;67.55;101901.91;5078307;28;20049;-66
2022/10/08 07:16:27;;;;;;;18.00;10.00;;;;;;;14.26;66.72;101909.59;5077765;28;20051;-70
2022/10/08 07:18:57;;;;;;;18.55;10.10;;;;;;;14.26;66.69;101920.41;5082616;28;20045;-66
2022/10/08 07:21:26;;;;;;;18.63;9.50;;;;;;;14.27;66.87;101927.47;5085871;28;20056;-65
2022/10/08 07:23:53;;;;;;;19.80;10.70;;;;;;;14.26;66.69;101923.09;5081262;28;20111;-66
2022/10/08 07:26:23;;;;;;;22.33;10.73;;;;;;;14.28;66.61;101928.28;5083488;28;20062;-66
2022/10/08 07:28:53;;;;;;;13.82;8.32;;;;;;;14.27;66.52;101930.16;5080925;28;20056;-65
2022/10/08 07:31:26;;;;;;;16.45;8.75;;;;;;;14.27;66.73;101934.75;5082388;28;20041;-66
2022/10/08 07:33:54;;;;;;;11.93;8.50;;;;;;;14.27;66.60;101937.47;5080172;28;20064;-66
2022/10/08 07:36:25;;;;;;;16.88;8.82;;;;;;;14.25;66.66;101942.25;5083316;28;20106;-65
2022/10/08 07:38:54;;;;;;;15.93;8.38;;;;;;;14.27;66.19;101950.97;5084047;28;20063;-65
2022/10/08 07:41:22;;;;;;;17.45;9.18;;;;;;;14.25;66.65;101948.50;5084788;28;20054;-65
2022/10/08 07:43:51;;;;;;;15.57;7.93;;;;;;;14.26;66.49;101955.56;5085298;28;20057;-65
2022/10/08 07:46:20;;;;;;;14.43;9.43;;;;;;;14.25;66.41;101953.91;5084506;28;20045;-66
2022/10/08 07:48:49;;;;;;;15.32;6.88;;;;;;;14.26;66.36;101966.38;5080349;28;20056;-65
2022/10/08 07:51:19;;;;;;;14.05;8.10;;;;;;;14.25;66.36;101972.81;5085612;28;20053;-65
2022/10/08 07:53:47;;;;;;;14.48;7.65;;;;;;;14.25;66.64;101963.88;5085043;28;20053;-65
2022/10/08 07:56:18;;;;;;;11.90;6.88;;;;;;;14.19;66.59;101956.66;5083933;28;20040;-64
2022/10/08 07:58:46;;;;;;;15.07;8.27;;;;;;;14.26;66.37;101963.66;5084196;28;20049;-65
2022/10/08 08:01:16;;;;;;;16.55;7.05;;;;;;;14.26;66.35;101969.06;5084267;28;20052;-64
2022/10/08 08:03:44;;;;;;;14.80;6.65;;;;;;;14.26;66.19;101970.94;5077716;28;20110;-62
2022/10/08 08:06:16;;;;;;;17.52;6.90;;;;;;;14.18;66.67;101963.94;5083706;28;20405;-63
2022/10/08 08:08:45;;;;;;;10.75;6.25;;;;;;;14.26;66.35;101977.19;5080063;28;20509;-64
2022/10/08 08:11:15;;;;;;;11.43;6.03;;;;;;;14.27;66.31;101978.84;5072743;28;20041;-65
2022/10/08 08:13:44;;;;;;;13.48;6.72;;;;;;;14.20;66.44;101969.94;5081378;28;20108;-65
2022/10/08 08:16:14;;;;;;;17.35;5.65;;;;;;;14.29;66.51;101986.75;5085664;28;20082;-64
2022/10/08 08:18:44;;;;;;;13.20;5.72;;;;;;;14.29;66.17;101989.44;5082251;28;20110;-64
2022/10/08 08:21:16;;;;;;;11.65;5.80;;;;;;;14.29;66.36;101987.56;5091208;28;20045;-65
2022/10/08 08:23:46;;;;;;;11.50;4.90;;;;;;;14.27;66.25;101986.94;5088025;28;20048;-66
2022/10/08 08:26:15;;;;;;;11.15;4.78;;;;;;;14.27;66.21;101989.66;5086153;28;20064;-65
2022/10/08 08:28:43;;;;;;;9.18;4.47;;;;;;;14.27;66.38;101999.66;5083329;28;20048;-66
2022/10/08 08:31:13;;;;;;;13.10;4.47;;;;;;;14.27;65.84;101999.66;5080716;28;20421;-67
2022/10/08 08:33:43;;;;;;;9.57;4.22;;;;;;;14.26;65.76;102011.50;5084856;28;20048;-66
2022/10/08 08:36:10;;;;;;;8.57;3.65;;;;;;;14.26;65.87;102014.22;5080715;28;20036;-66
2022/10/08 08:38:39;;;;;;;13.48;4.47;;;;;;;14.27;65.89;102010.47;5079976;28;20055;-66
2022/10/08 08:41:19;;;;;;;11.02;3.88;;;;;;;14.19;66.02;102010.72;5080444;28;20117;-66
2022/10/08 08:43:47;;;;;;;10.25;4.05;;;;;;;14.28;66.02;102020.22;5075405;28;20083;-66
2022/10/08 08:46:21;;;;;;;8.85;3.70;;;;;;;14.27;65.70;102040.22;5082260;28;20052;-66
2022/10/08 08:48:53;;;;;;;9.88;3.55;;;;;;;14.21;66.73;102033.78;5073831;28;20049;-67
2022/10/08 08:51:21;;;;;;;10.88;3.58;;;;;;;14.25;66.94;102039.59;5084863;28;20450;-64
2022/10/08 08:53:50;;;;;;;10.35;3.50;;;;;;;14.26;66.33;102033.97;5085805;28;20055;-65
2022/10/08 08:56:23;;;;;;;8.75;3.17;;;;;;;14.29;66.27;102035.41;5077701;28;20604;-67
2022/10/08 08:58:57;;;;;;;10.80;3.08;;;;;;;14.29;66.10;102041.66;5075881;28;20048;-67
2022/10/08 09:01:31;;;;;;;11.43;3.08;;;;;;;14.33;65.65;102048.28;5081870;28;20497;-66
2022/10/08 09:04:06;;;;;;;10.38;2.78;;;;;;;14.34;65.38;102041.81;5079869;28;20186;-69
2022/10/08 09:06:35;;;;;;;11.68;3.17;;;;;;;14.35;65.23;102050.78;5083779;28;20126;-68
2022/10/08 09:09:16;;;;;;;10.18;2.60;;;;;;;14.35;64.92;102045.38;5078908;28;20055;-68
2022/10/08 09:11:44;;;;;;;12.88;2.80;;;;;;;14.36;64.80;102047.03;5078690;28;20087;-70
2022/10/08 09:14:35;;;;;;;6.93;2.45;;;;;;;14.38;64.74;102044.09;5076497;28;20044;-68
2022/10/08 09:17:13;;;;;;;10.77;2.63;;;;;;;14.38;64.69;102047.63;5082616;28;20048;-69
2022/10/08 09:19:42;;;;;;;9.23;2.22;;;;;;;14.39;64.89;102065.50;5083809;28;20230;-68
2022/10/08 09:22:20;;;;;;;10.20;1.88;;;;;;;14.37;63.35;102064.06;5080646;28;20044;-67
2022/10/08 09:24:54;;;;;;;8.98;2.50;;;;;;;14.28;63.44;102064.34;5081374;28;20057;-68
2022/10/08 09:27:22;;;;;;;4.47;1.80;;;;;;;14.37;63.24;102061.38;5079826;28;20056;-67
2022/10/08 09:29:50;;;;;;;7.90;2.60;;;;;;;14.38;62.62;102079.25;5075915;28;20074;-67
2022/10/08 09:32:20;;;;;;;3.90;1.60;;;;;;;14.37;62.97;102064.91;5080217;28;20052;-66
2022/10/08 09:34:49;;;;;;;7.45;1.52;;;;;;;14.39;62.20;102073.63;5080184;28;20082;-67
2022/10/08 09:37:22;;;;;;;7.32;1.67;;;;;;;14.38;62.17;102081.97;5078263;28;20051;-67
2022/10/08 09:40:18;;;;;;;7.90;1.80;;;;;;;14.40;61.74;102087.97;5080907;28;20059;-67
2022/10/08 09:43:08;;;;;;;7.50;2.20;;;;;;;14.39;61.19;102089.03;5073987;28;20060;-66
2022/10/08 09:45:40;;;;;;;5.00;1.52;;;;;;;14.37;61.03;102100.06;5077921;28;20059;-67
2022/10/08 09:48:17;;;;;;;9.60;2.00;;;;;;;14.38;60.57;102098.19;5077537;28;20467;-66
2022/10/08 09:50:52;;;;;;;6.28;1.33;;;;;;;14.38;60.28;102106.31;5079634;28;20056;-65
2022/10/08 09:53:22;;;;;;;7.13;1.15;;;;;;;14.36;59.31;102100.28;5076755;28;20056;-67
2022/10/08 09:55:55;;;;;;;4.03;1.25;;;;;;;14.38;59.64;102114.41;5085578;28;20476;-67
2022/10/08 09:58:24;;;;;;;9.30;1.67;;;;;;;14.38;58.96;102109.84;5081814;28;20068;-67
2022/10/08 10:01:02;;;;;;;10.73;2.60;;;;;;;14.38;59.36;102120.66;5080087;28;20060;-68
2022/10/08 10:03:31;;;;;;;8.10;1.77;;;;;;;14.41;59.46;102124.81;5082649;28;20044;-69
2022/10/08 10:06:00;;;;;;;9.07;1.67;;;;;;;14.42;59.48;102127.31;5081444;28;20448;-68
2022/10/08 10:09:12;;;;;;;6.70;1.65;;;;;;;14.44;59.44;102124.41;5079025;28;20064;-66
2022/10/08 10:11:46;;;;;;;5.70;2.00;;;;;;;14.46;59.77;102117.72;5035061;28;20053;-68
2022/10/08 10:14:20;;;;;;;4.22;1.40;;;;;;;14.49;59.90;102113.75;5040393;28;20275;-71
2022/10/08 10:16:55;;;;;;;5.30;1.50;;;;;;;14.49;59.39;102121.88;5032192;28;20061;-66
2022/10/08 10:19:28;;;;;;;9.20;1.60;;;;;;;14.53;59.31;102121.22;5032864;28;20065;-69
2022/10/08 10:22:02;;;;;;;5.75;1.60;;;;;;;14.62;58.74;102125.34;5035446;28;20049;-67
2022/10/08 10:24:38;;;;;;;6.07;1.63;;;;;;;14.60;58.77;102123.91;5035989;28;20048;-68
2022/10/08 10:27:12;;;;;;;5.32;1.20;;;;;;;14.60;58.94;102127.44;5039556;28;20042;-66
2022/10/08 10:29:47;;;;;;;4.57;1.40;;;;;;;14.62;58.91;102130.75;5026681;28;20049;-68
2022/10/08 10:32:20;;;;;;;6.15;1.85;;;;;;;14.64;58.98;102122.41;5038895;28;20042;-68
2022/10/08 10:35:02;;;;;;;3.75;1.55;;;;;;;14.67;59.33;102130.09;5040340;28;20081;-68
2022/10/08 10:37:38;;;;;;;7.25;2.45;;;;;;;14.70;59.31;102143.19;5043664;28;20037;-67
2022/10/08 10:40:34;;;;;;;6.93;1.30;;;;;;;14.70;58.89;102137.78;5036771;28;20053;-67
2022/10/08 10:43:25;;;;;;;6.05;1.52;;;;;;;14.72;58.63;102135.69;5044095;28;20080;-69
2022/10/08 10:45:58;;;;;;;4.30;1.33;;;;;;;14.74;58.77;102130.88;5066804;28;20108;-68
2022/10/08 10:48:26;;;;;;;10.50;1.60;;;;;;;14.75;58.65;102146.06;5085456;28;20143;-68
2022/10/08 10:51:03;;;;;;;4.57;1.15;;;;;;;14.75;57.40;102150.66;5083860;28;20135;-67
2022/10/08 10:53:41;;;;;;;9.70;1.60;;;;;;;14.76;57.59;102146.91;5085360;28;20047;-68
2022/10/08 10:56:15;;;;;;;5.82;1.27;;;;;;;14.77;57.58;102143.97;5082288;28;20045;-69
2022/10/08 10:59:13;;;;;;;5.38;1.13;;;;;;;14.79;57.77;102141.06;5080059;28;20425;-69
2022/10/08 11:01:52;;;;;;;7.43;1.75;;;;;;;14.79;57.12;102141.88;5076797;28;20045;-69
2022/10/08 11:04:39;;;;;;;5.75;1.80;;;;;;;14.81;57.29;102147.09;5080227;28;20067;-71
2022/10/08 11:07:30;;;;;;;6.15;1.20;;;;;;;14.81;56.48;102144.38;5097742;28;20059;-70
2022/10/08 11:10:07;;;;;;;4.85;1.80;;;;;;;14.79;55.33;102152.72;5081818;28;20139;-66
2022/10/08 11:12:42;;;;;;;6.00;1.40;;;;;;;14.79;54.92;102146.47;4733512;28;10000298;-65
2022/10/08 11:15:22;;;;;;;6.50;1.70;;;;;;;14.73;55.01;102142.75;5081574;28;20051;-66
2022/10/08 11:18:14;;;;;;;5.85;1.25;;;;;;;14.78;55.17;102151.06;5077837;28;20068;-65
2022/10/08 11:20:55;;;;;;;3.70;1.33;;;;;;;14.80;54.30;102140.84;5082031;28;20051;-65
2022/10/08 11:23:37;;;;;;;4.63;1.08;;;;;;;14.83;54.60;102142.28;5078221;28;20055;-66
2022/10/08 11:26:16;;;;;;;6.40;1.45;;;;;;;14.87;55.48;102138.91;5085613;28;20063;-66
2022/10/08 11:29:00;;;;;;;5.30;2.03;;;;;;;14.91;55.33;102150.97;5077558;28;20072;-66
2022/10/08 11:31:40;;;;;;;5.90;1.27;;;;;;;14.95;55.43;102154.06;5076545;28;20041;-67
2022/10/08 11:34:19;;;;;;;6.93;1.40;;;;;;;14.97;55.32;102160.91;5080900;28;20070;-66
2022/10/08 11:36:56;;;;;;;5.30;1.65;;;;;;;14.99;55.14;102158.00;5075646;28;20049;-65
2022/10/08 11:39:32;;;;;;;10.38;1.85;;;;;;;15.01;55.16;102155.06;5079796;28;20054;-65
2022/10/08 11:42:10;;;;;;;5.85;1.30;;;;;;;15.02;54.31;102165.69;5081331;28;20051;-65
2022/10/08 11:44:39;;;;;;;9.38;1.42;;;;;;;15.02;53.49;102156.72;5079737;28;20063;-64